Mesa.AZweather.com - Mesa, AZ
   Red Mountain Frwy and University Dr., El 1518 ft.
       --- Tuesday  April 23, 2024 ---
 
 High Temperature ..  95F at 16:36
 Low Temperature ...  62F at 05:40
 
 High Humidity .....  33% at 06:49
 Low Humidity ......  10% at 16:30
 
 High Barometer ....  29.93 at 09:10
 Low Barometer .....  29.81 at 17:26
 
 High Dew Point ....  37F at 07:19
 Low Dew Point .....  25F at 20:10
 
 Rainfall Total ....  0.00 in.
 
 High Wind Speed ...  ---
                     
 
 Time   Temp  Humi  Rain     Baro  DewPt  Wind
00:00,  68F, 29%, 0.00 in, 29.83, 35F, ---
00:30,  68F, 29%, 0.00 in, 29.84, 35F, ---
01:00,  69F, 29%, 0.00 in, 29.85, 36F, ---
01:30,  68F, 28%, 0.00 in, 29.84, 34F, ---
02:00,  68F, 29%, 0.00 in, 29.85, 35F, ---
02:30,  67F, 29%, 0.00 in, 29.85, 33F, ---
03:00,  68F, 27%, 0.00 in, 29.84, 33F, ---
03:30,  70F, 25%, 0.00 in, 29.84, 32F, ---
04:00,  68F, 27%, 0.00 in, 29.85, 33F, ---
04:30,  68F, 26%, 0.00 in, 29.85, 32F, ---
05:00,  65F, 29%, 0.00 in, 29.86, 31F, ---
05:30,  63F, 29%, 0.00 in, 29.87, 30F, ---
06:00,  62F, 31%, 0.00 in, 29.88, 32F, ---
06:30,  63F, 31%, 0.00 in, 29.89, 32F, ---
07:00,  65F, 32%, 0.00 in, 29.90, 34F, ---
07:30,  70F, 28%, 0.00 in, 29.91, 35F, ---
08:00,  76F, 24%, 0.00 in, 29.91, 36F, ---
08:30,  79F, 19%, 0.00 in, 29.91, 33F, ---
09:00,  83F, 18%, 0.00 in, 29.92, 35F, ---
09:30,  84F, 17%, 0.00 in, 29.92, 35F, ---
10:00,  86F, 16%, 0.00 in, 29.93, 35F, ---
10:30,  87F, 15%, 0.00 in, 29.92, 34F, ---
11:00,  88F, 14%, 0.00 in, 29.92, 33F, ---
11:30,  90F, 13%, 0.00 in, 29.93, 32F, ---
12:00,  90F, 12%, 0.00 in, 29.91, 30F, ---
12:30,  92F, 12%, 0.00 in, 29.90, 32F, ---
13:00,  92F, 11%, 0.00 in, 29.89, 30F, ---
13:30,  91F, 11%, 0.00 in, 29.89, 30F, ---
14:00,  93F, 11%, 0.00 in, 29.88, 31F, ---
14:30,  93F, 11%, 0.00 in, 29.87, 31F, ---
15:00,  94F, 11%, 0.00 in, 29.86, 31F, ---
15:30,  93F, 11%, 0.00 in, 29.85, 31F, ---
16:00,  93F, 11%, 0.00 in, 29.84, 31F, ---
16:30,  94F, 10%, 0.00 in, 29.84, 29F, ---
17:00,  93F, 11%, 0.00 in, 29.83, 31F, ---
17:30,  93F, 11%, 0.00 in, 29.82, 31F, ---
18:00,  92F, 11%, 0.00 in, 29.81, 30F, ---
18:30,  91F, 12%, 0.00 in, 29.82, 32F, ---
19:00,  89F, 11%, 0.00 in, 29.82, 28F, ---
19:30,  86F, 13%, 0.00 in, 29.82, 29F, ---
20:00,  82F, 14%, 0.00 in, 29.84, 28F, ---
20:30,  79F, 15%, 0.00 in, 29.86, 27F, ---
21:00,  82F, 15%, 0.00 in, 29.87, 30F, ---
21:30,  81F, 15%, 0.00 in, 29.88, 29F, ---
22:00,  78F, 16%, 0.00 in, 29.89, 29F, ---
22:30,  75F, 17%, 0.00 in, 29.90, 27F, ---
23:00,  71F, 20%, 0.00 in, 29.90, 28F, ---
23:30,  68F, 23%, 0.00 in, 29.91, 29F, ---
23:59,  66F, 25%, 0.00 in, 29.92, 29F, ---